Página principal
METAR-TAF:

METAR-TAF

Aeroportos :

Aeroporto Internacional de Monastir - Habib Bourguiba

Monastir, Tunísia

latitude: 35-46N, longitude: 010-45E, altura: 2 m

Observação actual do tempo

O boletim foi feito há 16 minutos, às 20:00 UTC
Vento 3 kt de su-sudoeste
Temperatura 17°C
Humidade 94%
Pressão 1023 hPa
Visibilidade: 8000 m

METAR: DTMB 142000Z 21003KT 8000 NSC 17/16 Q1023 NOSIG

Hora: 21:16 (20:16 UTC)

Previsão

O boletim foi feito há 3 horas e 16 minutos, às 17:00 UTC
Previsão válida de 14 às 18 UTC a 15 às 18 UTC
Vento 4 kt de este
Visibilidade 10 km ou mais
Poucas nuvensa uma altura de 2600 ft
Temporariamente
de 15 às 04 UTC a 15 às 07 UTC
Visibilidade: 3000 m
neblina
Tornando-se
de 15 às 10 UTC a 15 às 12 UTC
Vento 10 kt de es-sudeste

TAF: DTMB 141700Z 1418/1518 10004KT 9999 FEW026 TEMPO 1504/1507 3000 BR BECMG 1510/1512 11010KT

Observações e previsões do tempo de mais de 4000 aeroportos (mensagens METAR e TAF).

As estações disponíveis são os pontos amarelos e vermelhos sobre o mapa.

Mova o rato sobre o mapa para ver o nome da estação.

Depois clique no ponto para visualizar as observações e previsões meteorológicas.

Para alterar o mapa : clique nos botões verdes com uma cruz preta para aumentar o zoom; no botão verde com uma pitada de zoom; ou nas setas verdes para mapas adjacentes.


METAR-TAF: